Time;durP1;ratioP1;P1;durP2;ratioP2;P2;SDS_P1;SDS_P2;PMS_P1;PMS_P2;Temp;Humidity;BMP_temperature;BMP_pressure;BME280_temperature;BME280_humidity;BME280_pressure;Samples;Min_cycle;Max_cycle;Signal;HPM_P1;HPM_P2
2023/09/09 00:01:14;;;;;;;13.23;10.63;;;19.70;1.00;;;;;;4987071;28;20621;-74
2023/09/09 00:03:39;;;;;;;16.70;11.30;;;19.60;1.00;;;;;;4990064;28;20191;-73
2023/09/09 00:06:11;;;;;;;11.60;10.37;;;21.30;1.00;;;;;;4990535;28;20191;-74
2023/09/09 00:08:37;;;;;;;12.37;11.07;;;19.60;1.00;;;;;;4990916;28;20182;-76
2023/09/09 00:11:03;;;;;;;12.63;10.87;;;19.60;1.00;;;;;;4990443;28;20441;-72
2023/09/09 00:13:29;;;;;;;13.83;10.83;;;19.20;1.00;;;;;;4990081;28;20988;-73
2023/09/09 00:15:55;;;;;;;12.60;11.30;;;19.40;1.00;;;;;;4990474;28;20274;-73
2023/09/09 00:18:21;;;;;;;15.33;11.20;;;19.40;1.00;;;;;;4989606;28;20183;-73
2023/09/09 00:20:46;;;;;;;13.97;10.70;;;19.40;1.00;;;;;;4989739;28;20441;-73
2023/09/09 00:23:12;;;;;;;12.93;10.60;;;19.40;1.00;;;;;;4989453;28;20240;-72
2023/09/09 00:25:42;;;;;;;13.63;11.03;;;19.40;1.00;;;;;;4971202;28;20202;-71
2023/09/09 00:28:09;;;;;;;14.90;10.20;;;19.30;1.00;;;;;;4990203;28;20823;-74
2023/09/09 00:30:35;;;;;;;13.10;10.50;;;19.30;1.00;;;;;;4986619;28;20496;-75
2023/09/09 00:33:00;;;;;;;18.30;11.73;;;19.30;1.00;;;;;;4988459;28;20469;-73
2023/09/09 00:35:26;;;;;;;18.20;11.20;;;19.20;1.00;;;;;;4989342;28;20277;-74
2023/09/09 00:37:52;;;;;;;12.53;10.67;;;19.20;1.00;;;;;;4989796;28;20182;-74
2023/09/09 00:40:18;;;;;;;16.37;11.10;;;19.10;1.00;;;;;;4989702;28;20437;-73
2023/09/09 00:42:43;;;;;;;15.23;11.30;;;19.00;1.00;;;;;;4988869;28;20296;-73
2023/09/09 00:45:10;;;;;;;13.90;11.13;;;18.90;1.00;;;;;;4988393;28;20735;-73
2023/09/09 00:47:37;;;;;;;13.67;10.57;;;18.90;1.00;;;;;;4986478;28;20191;-73
2023/09/09 00:50:05;;;;;;;13.17;9.97;;;18.90;1.00;;;;;;4988708;28;20940;-73
2023/09/09 00:52:31;;;;;;;12.10;10.30;;;18.90;1.00;;;;;;4988931;28;20477;-72
2023/09/09 00:54:58;;;;;;;19.20;10.40;;;18.80;1.00;;;;;;4987764;28;20462;-74
2023/09/09 00:57:25;;;;;;;13.97;11.50;;;18.80;1.00;;;;;;4989076;28;20215;-73
2023/09/09 00:59:51;;;;;;;11.57;10.03;;;18.70;1.00;;;;;;4988944;28;20462;-75
2023/09/09 01:02:16;;;;;;;12.70;10.17;;;18.70;1.00;;;;;;4985082;28;20552;-73
2023/09/09 01:04:42;;;;;;;16.00;10.80;;;18.50;1.00;;;;;;4986352;28;20766;-72
2023/09/09 01:07:08;;;;;;;13.37;10.63;;;18.50;1.00;;;;;;4988544;28;20211;-73
2023/09/09 01:09:36;;;;;;;18.67;11.93;;;18.40;1.00;;;;;;4989353;28;20257;-75
2023/09/09 01:12:03;;;;;;;13.70;10.97;;;18.40;1.00;;;;;;4971320;28;20797;-74
2023/09/09 01:14:30;;;;;;;16.80;10.83;;;18.30;1.00;;;;;;4970713;28;20490;-73
2023/09/09 01:16:56;;;;;;;13.60;12.07;;;18.30;1.00;;;;;;4988822;28;20445;-73
2023/09/09 01:19:27;;;;;;;14.00;11.10;;;18.30;1.00;;;;;;4986793;28;20966;-73
2023/09/09 01:21:54;;;;;;;17.73;10.97;;;18.30;1.00;;;;;;4988434;28;20442;-73
2023/09/09 01:24:20;;;;;;;13.00;10.80;;;18.30;1.00;;;;;;4987298;28;20466;-76
2023/09/09 01:26:46;;;;;;;19.57;12.37;;;18.30;1.00;;;;;;4975834;28;20824;-74
2023/09/09 01:29:12;;;;;;;13.67;11.53;;;18.30;1.00;;;;;;4984773;28;20428;-75
2023/09/09 01:31:38;;;;;;;12.33;10.90;;;18.30;1.00;;;;;;4987664;28;20245;-73
2023/09/09 01:34:04;;;;;;;13.50;11.87;;;18.30;1.00;;;;;;4988483;28;20293;-75
2023/09/09 01:36:29;;;;;;;14.10;11.27;;;18.40;1.00;;;;;;4987988;28;20600;-74
2023/09/09 01:38:55;;;;;;;12.80;11.13;;;18.30;1.00;;;;;;4989006;28;20245;-73
2023/09/09 01:41:20;;;;;;;13.43;11.60;;;18.20;1.00;;;;;;4988077;28;20198;-75
2023/09/09 01:43:46;;;;;;;12.33;10.50;;;18.30;1.00;;;;;;4988487;28;20206;-74
2023/09/09 01:46:12;;;;;;;12.47;11.17;;;18.30;1.00;;;;;;4987967;28;20557;-73
2023/09/09 01:48:37;;;;;;;12.77;11.10;;;18.40;1.00;;;;;;4988013;28;20202;-73
2023/09/09 01:51:03;;;;;;;13.30;10.97;;;18.50;1.00;;;;;;4988308;28;20540;-74
2023/09/09 01:53:28;;;;;;;21.13;11.67;;;18.50;1.00;;;;;;4987996;28;20214;-74
2023/09/09 01:55:56;;;;;;;14.40;11.30;;;18.50;1.00;;;;;;4987552;28;20242;-73
2023/09/09 01:58:21;;;;;;;15.80;11.43;;;18.50;1.00;;;;;;4987839;28;20210;-75
2023/09/09 02:00:48;;;;;;;12.10;10.50;;;18.50;1.00;;;;;;4982877;28;20488;-74
2023/09/09 02:03:13;;;;;;;13.30;11.20;;;18.40;1.00;;;;;;4988040;28;20183;-73
2023/09/09 02:05:39;;;;;;;19.03;11.30;;;18.40;1.00;;;;;;4987495;28;20473;-75
2023/09/09 02:08:05;;;;;;;12.53;11.23;;;18.40;1.00;;;;;;4988316;28;20191;-73
2023/09/09 02:10:30;;;;;;;13.40;11.17;;;18.40;1.00;;;;;;4988140;28;20553;-74
2023/09/09 02:12:56;;;;;;;13.40;11.60;;;18.40;1.00;;;;;;4987666;28;20476;-73
2023/09/09 02:15:22;;;;;;;13.87;12.37;;;18.30;1.00;;;;;;4987293;28;20222;-70
2023/09/09 02:17:47;;;;;;;13.10;11.67;;;18.20;1.00;;;;;;4988432;28;20179;-75
2023/09/09 02:20:13;;;;;;;16.50;12.20;;;18.20;1.00;;;;;;4988326;28;20244;-74
2023/09/09 02:22:38;;;;;;;13.73;11.00;;;18.20;1.00;;;;;;4970515;28;20341;-73
2023/09/09 02:25:05;;;;;;;15.97;11.60;;;18.20;1.00;;;;;;4987182;28;20249;-73
2023/09/09 02:27:30;;;;;;;14.73;11.50;;;18.10;1.00;;;;;;4986193;28;20198;-72
2023/09/09 02:29:56;;;;;;;16.67;12.23;;;18.10;1.00;;;;;;4987848;28;20454;-74
2023/09/09 02:32:21;;;;;;;15.77;11.87;;;18.10;1.00;;;;;;4987291;28;20222;-73
2023/09/09 02:34:47;;;;;;;17.80;11.47;;;18.10;1.00;;;;;;4968132;28;20344;-74
2023/09/09 02:37:21;;;;;;;14.90;11.30;;;18.00;1.00;;;;;;4988932;28;20258;-73
2023/09/09 02:39:48;;;;;;;11.67;10.47;;;18.10;1.00;;;;;;4970344;28;20187;-72
2023/09/09 02:42:16;;;;;;;16.40;11.57;;;18.00;1.00;;;;;;4991928;28;20496;-74
2023/09/09 02:44:42;;;;;;;11.93;10.70;;;18.00;1.00;;;;;;4990819;28;20571;-74
2023/09/09 02:47:09;;;;;;;14.50;11.77;;;18.00;1.00;;;;;;4991721;28;20481;-74
2023/09/09 02:49:38;;;;;;;12.10;10.80;;;17.90;1.00;;;;;;4991153;28;20195;-73
2023/09/09 02:52:04;;;;;;;11.83;10.50;;;17.80;1.00;;;;;;4990893;28;20452;-72
2023/09/09 02:54:30;;;;;;;14.43;11.90;;;17.70;1.00;;;;;;4969631;28;20514;-74
2023/09/09 02:56:55;;;;;;;14.50;10.93;;;17.80;1.00;;;;;;4990336;28;20512;-72
2023/09/09 02:59:25;;;;;;;16.30;12.10;;;17.70;1.00;;;;;;4991546;28;20553;-73
2023/09/09 03:01:50;;;;;;;13.10;10.90;;;17.60;1.00;;;;;;4968133;28;20262;-75
2023/09/09 03:04:16;;;;;;;17.80;11.47;;;17.60;1.00;;;;;;4991352;28;20604;-73
2023/09/09 03:06:41;;;;;;;14.50;11.60;;;17.60;1.00;;;;;;4990886;28;20657;-74
2023/09/09 03:09:06;;;;;;;12.63;11.30;;;17.50;1.00;;;;;;4991289;28;20187;-74
2023/09/09 03:11:32;;;;;;;12.43;11.13;;;17.50;1.00;;;;;;4990212;28;20195;-70
2023/09/09 03:13:59;;;;;;;14.53;12.33;;;17.40;1.00;;;;;;4989309;28;20206;-73
2023/09/09 03:16:24;;;;;;;15.67;12.20;;;17.40;1.00;;;;;;4991349;28;20301;-73
2023/09/09 03:18:50;;;;;;;14.80;11.50;;;17.50;1.00;;;;;;4990902;28;20438;-72
2023/09/09 03:21:15;;;;;;;12.40;11.10;;;17.40;1.00;;;;;;4990043;28;20218;-74
2023/09/09 03:23:41;;;;;;;14.17;11.20;;;17.40;1.00;;;;;;4990356;28;20194;-75
2023/09/09 03:26:08;;;;;;;14.47;11.43;;;17.40;1.00;;;;;;4990951;28;20254;-73
2023/09/09 03:28:34;;;;;;;16.17;11.50;;;17.40;1.00;;;;;;4989749;28;20684;-74
2023/09/09 03:31:00;;;;;;;15.40;11.40;;;17.30;1.00;;;;;;4990583;28;20438;-73
2023/09/09 03:33:30;;;;;;;15.23;11.10;;;17.40;1.00;;;;;;4986908;28;20206;-73
2023/09/09 03:35:56;;;;;;;12.80;11.40;;;17.30;1.00;;;;;;4972229;28;20179;-73
2023/09/09 03:38:22;;;;;;;13.00;11.37;;;17.40;1.00;;;;;;4990747;28;20448;-76
2023/09/09 03:40:48;;;;;;;15.23;10.70;;;17.40;1.00;;;;;;4988581;28;20191;-73
2023/09/09 03:43:14;;;;;;;12.10;10.80;;;17.40;1.00;;;;;;4989889;28;20434;-71
2023/09/09 03:45:40;;;;;;;13.30;10.90;;;17.40;1.00;;;;;;4989239;28;20246;-72
2023/09/09 03:48:05;;;;;;;15.87;11.37;;;17.40;1.00;;;;;;4989447;28;20455;-73
2023/09/09 03:50:32;;;;;;;12.30;10.70;;;17.40;1.00;;;;;;4990742;28;20191;-73
2023/09/09 03:52:58;;;;;;;12.43;11.13;;;17.40;1.00;;;;;;4990115;28;20298;-73
2023/09/09 03:55:24;;;;;;;17.20;10.37;;;17.40;1.00;;;;;;4985031;28;20534;-73
2023/09/09 03:57:49;;;;;;;12.97;10.90;;;17.40;1.00;;;;;;4990184;28;20183;-73
2023/09/09 04:00:15;;;;;;;12.80;10.90;;;17.40;1.00;;;;;;4989556;28;20513;-75
2023/09/09 04:02:41;;;;;;;13.30;10.53;;;17.40;1.00;;;;;;4972568;28;20299;-73
2023/09/09 04:05:08;;;;;;;15.43;11.70;;;17.40;1.00;;;;;;4989651;28;20605;-73
2023/09/09 04:07:35;;;;;;;13.70;11.77;;;17.30;1.00;;;;;;4989969;28;20211;-73
2023/09/09 04:10:05;;;;;;;17.87;11.10;;;17.20;1.00;;;;;;4989348;28;20765;-74
2023/09/09 04:12:31;;;;;;;15.50;11.07;;;17.30;1.00;;;;;;4990390;28;20494;-72
2023/09/09 04:14:56;;;;;;;13.57;10.83;;;17.30;1.00;;;;;;4989753;28;20549;-74
2023/09/09 04:17:22;;;;;;;13.40;11.27;;;17.30;1.00;;;;;;4990040;28;20528;-73
2023/09/09 04:19:48;;;;;;;13.47;11.47;;;17.30;1.00;;;;;;4989759;28;20187;-77
2023/09/09 04:22:13;;;;;;;15.67;11.53;;;17.20;1.00;;;;;;4990045;28;20226;-74
2023/09/09 04:24:39;;;;;;;12.87;10.77;;;17.10;1.00;;;;;;4987136;28;20211;-73
2023/09/09 04:27:04;;;;;;;15.73;10.63;;;17.10;1.00;;;;;;4990623;28;20186;-73
2023/09/09 04:29:30;;;;;;;12.57;10.70;;;17.00;1.00;;;;;;4989686;28;20569;-73
2023/09/09 04:31:56;;;;;;;13.07;9.60;;;16.90;1.00;;;;;;4984253;28;20198;-72
2023/09/09 04:34:21;;;;;;;13.70;10.83;;;16.70;1.00;;;;;;4986276;28;20199;-72
2023/09/09 04:36:47;;;;;;;12.23;8.83;;;16.70;1.00;;;;;;4989222;28;20187;-73
2023/09/09 04:39:15;;;;;;;11.30;9.20;;;16.60;1.00;;;;;;4989171;28;20210;-73
2023/09/09 04:41:42;;;;;;;11.30;9.57;;;16.60;1.00;;;;;;4989859;28;20261;-76
2023/09/09 04:44:08;;;;;;;14.10;9.07;;;16.60;1.00;;;;;;4989711;28;20472;-73
2023/09/09 04:46:34;;;;;;;12.07;9.53;;;16.70;1.00;;;;;;4988218;28;20473;-73
2023/09/09 04:49:00;;;;;;;11.17;9.63;;;16.70;1.00;;;;;;4988660;28;20952;-72
2023/09/09 04:51:25;;;;;;;13.53;9.97;;;16.70;1.00;;;;;;4986006;28;20195;-73
2023/09/09 04:53:51;;;;;;;14.90;9.80;;;16.60;1.00;;;;;;4988911;28;20696;-74
2023/09/09 04:56:17;;;;;;;15.53;10.10;;;16.60;1.00;;;;;;4988079;28;20183;-75
2023/09/09 04:58:42;;;;;;;13.23;10.33;;;16.60;1.00;;;;;;4987004;28;20441;-72
2023/09/09 05:01:09;;;;;;;13.20;9.87;;;16.40;1.00;;;;;;4986142;28;20653;-74
2023/09/09 05:03:34;;;;;;;11.33;9.63;;;16.70;1.00;;;;;;4988313;28;20525;-73
2023/09/09 05:06:00;;;;;;;12.30;9.93;;;16.70;1.00;;;;;;4988813;28;20446;-75
2023/09/09 05:08:26;;;;;;;15.83;10.23;;;16.70;1.00;;;;;;4989680;28;20796;-72
2023/09/09 05:10:51;;;;;;;14.47;9.60;;;16.70;1.00;;;;;;4985816;28;20198;-72
2023/09/09 05:13:17;;;;;;;14.57;10.33;;;16.50;1.00;;;;;;4984830;28;20207;-70
2023/09/09 05:15:42;;;;;;;11.90;9.83;;;16.70;1.00;;;;;;4987071;28;20203;-74
2023/09/09 05:18:08;;;;;;;13.30;10.10;;;16.70;1.00;;;;;;4989894;28;20262;-73
2023/09/09 05:20:33;;;;;;;12.60;9.70;;;16.70;1.00;;;;;;4985406;28;20692;-71
2023/09/09 05:22:59;;;;;;;14.13;10.10;;;16.70;1.00;;;;;;4989193;28;20241;-74
2023/09/09 05:25:25;;;;;;;16.40;10.60;;;16.70;1.00;;;;;;4985465;28;20215;-73
2023/09/09 05:27:51;;;;;;;14.80;10.00;;;16.70;1.00;;;;;;4987485;28;20199;-75
2023/09/09 05:30:17;;;;;;;13.00;9.77;;;16.80;1.00;;;;;;4987284;28;20446;-73
2023/09/09 05:32:42;;;;;;;12.83;10.60;;;16.80;1.00;;;;;;4986523;28;20496;-73
2023/09/09 05:35:10;;;;;;;13.27;10.30;;;16.90;1.00;;;;;;4987897;28;20234;-73
2023/09/09 05:37:36;;;;;;;12.93;10.17;;;16.90;1.00;;;;;;4968502;28;20610;-73
2023/09/09 05:40:02;;;;;;;15.53;11.07;;;16.90;1.00;;;;;;4984201;28;20434;-76
2023/09/09 05:42:28;;;;;;;12.97;10.30;;;17.10;1.00;;;;;;4971456;28;20435;-76
2023/09/09 05:44:53;;;;;;;13.20;11.40;;;17.20;1.00;;;;;;4988928;28;20448;-73
2023/09/09 05:47:19;;;;;;;13.63;11.03;;;17.20;1.00;;;;;;4993281;28;20442;-72
2023/09/09 05:49:44;;;;;;;16.30;12.53;;;17.50;1.00;;;;;;4986866;28;20535;-73
2023/09/09 05:52:11;;;;;;;12.77;11.07;;;17.50;1.00;;;;;;4986163;28;20179;-76
2023/09/09 05:54:37;;;;;;;14.10;11.67;;;17.70;1.00;;;;;;4987607;28;20203;-73
2023/09/09 05:57:03;;;;;;;13.17;11.40;;;19.10;1.00;;;;;;4987281;28;20430;-75
2023/09/09 05:59:28;;;;;;;12.87;11.40;;;17.80;1.00;;;;;;4988443;28;20198;-73
2023/09/09 06:01:54;;;;;;;14.27;12.00;;;18.00;1.00;;;;;;4981560;28;20732;-73
2023/09/09 06:04:19;;;;;;;19.10;12.87;;;18.30;1.00;;;;;;4988108;28;20234;-73
2023/09/09 06:06:45;;;;;;;16.30;13.03;;;18.40;1.00;;;;;;4987943;28;20187;-74
2023/09/09 06:09:11;;;;;;;14.40;12.00;;;18.60;1.00;;;;;;4987192;28;20684;-73
2023/09/09 06:11:36;;;;;;;14.40;12.60;;;18.70;1.00;;;;;;4986183;28;20665;-74
2023/09/09 06:14:02;;;;;;;15.23;11.43;;;18.90;1.00;;;;;;4986712;28;20701;-73
2023/09/09 06:16:28;;;;;;;17.27;12.30;;;19.10;1.00;;;;;;4995095;28;20191;-74
2023/09/09 06:18:53;;;;;;;14.40;12.43;;;19.30;1.00;;;;;;4992171;28;20186;-73
2023/09/09 06:21:21;;;;;;;14.17;11.70;;;20.80;1.00;;;;;;4995162;28;20456;-73
2023/09/09 06:23:46;;;;;;;15.67;11.13;;;19.80;1.00;;;;;;4993737;28;20183;-72
2023/09/09 06:26:12;;;;;;;13.70;10.80;;;19.80;1.00;;;;;;4987340;28;20892;-73
2023/09/09 06:28:37;;;;;;;13.97;10.80;;;20.10;1.00;;;;;;4993988;28;20699;-73
2023/09/09 06:31:03;;;;;;;15.10;12.30;;;20.50;1.00;;;;;;4994042;28;20193;-71
2023/09/09 06:33:29;;;;;;;14.10;10.77;;;21.70;1.00;;;;;;4994598;28;20197;-71
2023/09/09 06:35:55;;;;;;;13.70;12.00;;;21.70;1.00;;;;;;4992694;28;20580;-73
2023/09/09 06:38:21;;;;;;;13.20;11.80;;;22.40;1.00;;;;;;4993537;28;20201;-73
2023/09/09 06:40:47;;;;;;;13.50;11.03;;;23.10;1.00;;;;;;4993985;28;20437;-76
2023/09/09 06:43:15;;;;;;;15.47;12.43;;;23.80;1.00;;;;;;4986880;28;20261;-74
2023/09/09 06:45:41;;;;;;;14.00;12.53;;;24.40;1.00;;;;;;4990591;28;20460;-72
2023/09/09 06:48:06;;;;;;;16.67;13.97;;;25.00;1.00;;;;;;4991941;28;21064;-73
2023/09/09 06:50:32;;;;;;;16.20;12.73;;;25.00;1.00;;;;;;4990999;28;20269;-76
2023/09/09 06:52:57;;;;;;;16.80;14.77;;;24.70;1.00;;;;;;4991142;28;20206;-73
2023/09/09 06:55:23;;;;;;;21.70;16.17;;;24.00;1.00;;;;;;4971290;28;20739;-74
2023/09/09 06:57:49;;;;;;;19.73;14.70;;;23.70;1.00;;;;;;4986434;28;20230;-74
2023/09/09 07:00:14;;;;;;;16.10;14.40;;;23.50;1.00;;;;;;4992338;28;20258;-75
2023/09/09 07:02:40;;;;;;;16.33;14.30;;;23.90;1.00;;;;;;4992723;28;20237;-74
2023/09/09 07:05:07;;;;;;;18.83;14.73;;;24.50;1.00;;;;;;4991886;28;20214;-73
2023/09/09 07:07:32;;;;;;;17.37;15.10;;;24.50;1.00;;;;;;4994431;28;20249;-75
2023/09/09 07:09:58;;;;;;;20.30;15.40;;;24.30;1.00;;;;;;4994514;28;20596;-74
2023/09/09 07:12:24;;;;;;;22.37;15.00;;;24.10;1.00;;;;;;4975673;28;20206;-74
2023/09/09 07:14:49;;;;;;;18.47;15.57;;;23.90;1.00;;;;;;4992677;28;20584;-75
2023/09/09 07:17:15;;;;;;;23.13;16.13;;;23.90;1.00;;;;;;4993961;28;20182;-73
2023/09/09 07:19:40;;;;;;;25.27;15.23;;;23.90;1.00;;;;;;4994047;28;20186;-76
2023/09/09 07:22:06;;;;;;;16.03;14.27;;;24.60;1.00;;;;;;4994180;28;20186;-76
2023/09/09 07:24:32;;;;;;;20.13;15.00;;;26.40;1.00;;;;;;4990019;28;20667;-75
2023/09/09 07:27:01;;;;;;;18.00;13.77;;;26.80;1.00;;;;;;4989990;28;20183;-75
2023/09/09 07:29:27;;;;;;;21.07;13.53;;;27.70;1.00;;;;;;4989840;28;20194;-74
2023/09/09 07:31:52;;;;;;;16.17;14.00;;;28.50;1.00;;;;;;4988547;28;20950;-74
2023/09/09 07:34:19;;;;;;;15.77;14.05;;;29.90;1.00;;;;;;4987644;28;20222;-74
2023/09/09 07:36:45;;;;;;;15.93;12.75;;;29.90;1.00;;;;;;4984461;28;20183;-75
2023/09/09 07:39:10;;;;;;;16.60;12.60;;;30.30;1.00;;;;;;4987110;28;20194;-72
2023/09/09 07:41:36;;;;;;;16.33;12.48;;;30.90;1.00;;;;;;4989332;28;20201;-75
2023/09/09 07:44:02;;;;;;;12.93;11.45;;;31.40;1.00;;;;;;4979738;28;20209;-75
2023/09/09 07:46:28;;;;;;;14.52;11.45;;;31.60;1.00;;;;;;4988159;28;20237;-75
2023/09/09 07:48:53;;;;;;;14.15;10.73;;;32.20;1.00;;;;;;4986677;28;20186;-75
2023/09/09 07:51:20;;;;;;;12.32;10.93;;;32.50;1.00;;;;;;4988361;28;20240;-76
2023/09/09 07:53:46;;;;;;;13.13;10.77;;;33.30;1.00;;;;;;4986570;28;20211;-78
2023/09/09 07:56:11;;;;;;;12.77;11.45;;;33.30;1.00;;;;;;4982263;28;20541;-76
2023/09/09 07:58:37;;;;;;;11.55;10.32;;;33.80;1.00;;;;;;4991219;28;20191;-75
2023/09/09 08:01:04;;;;;;;13.43;10.10;;;34.30;1.00;;;;;;4990186;28;20680;-75
2023/09/09 08:03:30;;;;;;;15.65;9.70;;;33.50;1.00;;;;;;4988495;28;20190;-76
2023/09/09 08:05:56;;;;;;;10.30;9.27;;;33.60;1.00;;;;;;4972059;28;20210;-74
2023/09/09 08:08:22;;;;;;;13.52;10.80;;;33.50;1.00;;;;;;4989231;28;20217;-75
2023/09/09 08:10:49;;;;;;;10.85;9.75;;;34.10;1.00;;;;;;4973494;28;20684;-75
2023/09/09 08:13:15;;;;;;;12.20;9.77;;;34.60;1.00;;;;;;4989026;28;20209;-75
2023/09/09 08:15:40;;;;;;;14.23;10.52;;;33.90;1.00;;;;;;4989628;28;20195;-74
2023/09/09 08:18:06;;;;;;;11.50;10.30;;;34.30;1.00;;;;;;4990235;28;20178;-75
2023/09/09 08:20:31;;;;;;;10.65;9.52;;;34.90;1.00;;;;;;4990842;28;20237;-74
2023/09/09 08:22:57;;;;;;;15.32;10.10;;;35.70;1.00;;;;;;4990283;28;20193;-75
2023/09/09 08:25:22;;;;;;;14.52;9.60;;;36.10;1.00;;;;;;4972291;28;20206;-75
2023/09/09 08:27:48;;;;;;;768.00;127.28;;;36.40;1.00;;;;;;4981984;28;20186;-72
2023/09/09 08:30:15;;;;;;;11.45;10.32;;;36.80;1.00;;;;;;4987170;28;20218;-72
2023/09/09 08:32:40;;;;;;;11.55;9.55;;;37.00;1.00;;;;;;4986497;28;20862;-75
2023/09/09 08:35:06;;;;;;;12.55;9.85;;;38.00;1.00;;;;;;4986834;28;20241;-78
2023/09/09 08:37:32;;;;;;;10.10;9.05;;;38.10;1.00;;;;;;4967600;28;20234;-77
2023/09/09 08:39:57;;;;;;;12.93;8.93;;;37.80;1.00;;;;;;4969574;28;20259;-77
2023/09/09 08:42:49;;;;;;;12.02;9.73;;;35.80;1.00;;;;;;4989338;28;20283;-75
2023/09/09 08:45:30;;;;;;;14.02;9.55;;;37.80;1.00;;;;;;4973211;28;20230;-77
2023/09/09 08:47:58;;;;;;;10.35;9.35;;;38.10;1.00;;;;;;4991297;28;20183;-78
2023/09/09 08:50:25;;;;;;;13.48;8.68;;;37.80;1.00;;;;;;4990122;28;20691;-74
2023/09/09 08:52:53;;;;;;;11.50;9.85;;;38.10;1.00;;;;;;4990737;28;20692;-77
2023/09/09 08:55:19;;;;;;;10.48;9.40;;;38.20;1.00;;;;;;4990105;28;20199;-77
2023/09/09 08:57:46;;;;;;;11.02;9.13;;;38.40;1.00;;;;;;4990889;28;20194;-75
2023/09/09 09:00:13;;;;;;;10.70;9.60;;;38.40;1.00;;;;;;4988841;28;20179;-76
2023/09/09 09:02:39;;;;;;;15.18;9.48;;;39.10;1.00;;;;;;4990802;28;20178;-75
2023/09/09 09:05:05;;;;;;;12.85;9.75;;;39.10;1.00;;;;;;4990155;28;20309;-75
2023/09/09 09:07:34;;;;;;;12.27;9.55;;;39.10;1.00;;;;;;4990563;28;20213;-76
2023/09/09 09:09:59;;;;;;;10.38;8.68;;;39.30;1.00;;;;;;4990765;28;20198;-76
2023/09/09 09:12:27;;;;;;;11.75;8.85;;;39.50;1.00;;;;;;4990391;28;20218;-76
2023/09/09 09:14:53;;;;;;;15.20;9.50;;;40.00;1.00;;;;;;4990318;28;20272;-75
2023/09/09 09:17:18;;;;;;;11.45;8.95;;;39.90;1.00;;;;;;4990154;28;20655;-75
2023/09/09 09:19:44;;;;;;;12.07;10.02;;;39.90;1.00;;;;;;4990568;28;20178;-75
2023/09/09 09:22:12;;;;;;;11.75;9.23;;;40.40;1.00;;;;;;4972401;28;20178;-77
2023/09/09 09:24:42;;;;;;;15.68;9.52;;;40.20;1.00;;;;;;4990144;28;20190;-76
2023/09/09 09:27:10;;;;;;;11.35;9.43;;;40.40;1.00;;;;;;4989995;28;20175;-76
2023/09/09 09:29:40;;;;;;;11.25;9.27;;;40.20;1.00;;;;;;4972908;28;20661;-76
2023/09/09 09:32:08;;;;;;;12.80;8.40;;;40.20;1.00;;;;;;4986641;28;20658;-76
2023/09/09 09:34:34;;;;;;;10.95;8.45;;;41.30;1.00;;;;;;4989930;28;20573;-76
2023/09/09 09:37:09;;;;;;;9.68;7.85;;;41.60;1.00;;;;;;4990177;28;20189;-76
2023/09/09 09:39:35;;;;;;;10.77;7.82;;;42.30;1.00;;;;;;4990281;28;20182;-76
2023/09/09 09:42:01;;;;;;;15.25;8.27;;;42.50;1.00;;;;;;4990288;28;20261;-78
2023/09/09 09:44:27;;;;;;;9.65;8.43;;;42.40;1.00;;;;;;4989545;28;20206;-76
2023/09/09 09:47:08;;;;;;;12.15;7.90;;;42.30;1.00;;;;;;4990151;28;20178;-76
2023/09/09 09:49:36;;;;;;;13.23;7.78;;;42.90;1.00;;;;;;4982442;28;20193;-76
2023/09/09 09:52:03;;;;;;;9.25;8.07;;;43.20;1.00;;;;;;4990249;28;20183;-77
2023/09/09 09:54:29;;;;;;;10.57;7.93;;;44.00;1.00;;;;;;4989077;28;20578;-75
2023/09/09 09:57:00;;;;;;;9.38;7.80;;;44.20;1.00;;;;;;4965588;28;20183;-76
2023/09/09 09:59:30;;;;;;;9.50;7.80;;;44.50;1.00;;;;;;4989173;28;20187;-77
2023/09/09 10:01:56;;;;;;;10.35;7.97;;;44.80;1.00;;;;;;4971845;28;20193;-78
2023/09/09 10:04:24;;;;;;;8.57;7.30;;;45.00;1.00;;;;;;4989301;28;20293;-76
2023/09/09 10:06:53;;;;;;;9.68;7.88;;;45.20;1.00;;;;;;4990103;28;20509;-76
2023/09/09 10:09:47;;;;;;;10.57;7.90;;;45.10;1.00;;;;;;4989833;28;20174;-75
2023/09/09 10:12:33;;;;;;;8.63;7.65;;;45.00;1.00;;;;;;4989243;28;20186;-75
2023/09/09 10:15:00;;;;;;;15.40;7.63;;;45.00;1.00;;;;;;4989579;28;20202;-76
2023/09/09 10:17:27;;;;;;;10.60;7.68;;;45.30;1.00;;;;;;4989444;28;20199;-75
2023/09/09 10:19:55;;;;;;;9.52;7.72;;;45.50;1.00;;;;;;4989799;28;20277;-75
2023/09/09 10:22:21;;;;;;;13.88;7.63;;;45.80;1.00;;;;;;4989397;28;20175;-76
2023/09/09 10:24:49;;;;;;;11.15;7.13;;;46.00;1.00;;;;;;4966164;28;20199;-77
2023/09/09 10:27:16;;;;;;;8.55;7.38;;;45.90;1.00;;;;;;4986899;28;20177;-76
2023/09/09 10:29:43;;;;;;;9.40;8.32;;;45.60;1.00;;;;;;4989720;28;20183;-75
2023/09/09 10:32:12;;;;;;;8.65;7.75;;;45.80;1.00;;;;;;4988376;28;20200;-73
2023/09/09 10:34:39;;;;;;;8.48;7.55;;;45.60;1.00;;;;;;4971915;28;20199;-77
2023/09/09 10:37:07;;;;;;;8.10;7.30;;;45.60;1.00;;;;;;4989502;28;20179;-76
2023/09/09 10:39:33;;;;;;;10.75;7.20;;;45.80;1.00;;;;;;4989600;28;20240;-76
2023/09/09 10:41:59;;;;;;;9.95;7.78;;;45.80;1.00;;;;;;4989657;28;20903;-76
2023/09/09 10:44:25;;;;;;;8.98;8.07;;;46.20;1.00;;;;;;4988858;28;20216;-74
2023/09/09 10:46:57;;;;;;;12.80;7.30;;;46.70;1.00;;;;;;4989513;28;20731;-76
2023/09/09 10:49:29;;;;;;;8.25;7.35;;;47.00;1.00;;;;;;4971978;28;20581;-77
2023/09/09 10:51:55;;;;;;;8.50;7.20;;;46.90;1.00;;;;;;4989288;28;20186;-78
2023/09/09 10:54:26;;;;;;;11.13;7.20;;;46.20;1.00;;;;;;4988607;28;20231;-77
2023/09/09 10:57:02;;;;;;;10.23;6.90;;;46.20;1.00;;;;;;4989410;28;20183;-76
2023/09/09 10:59:30;;;;;;;9.00;6.43;;;46.10;1.00;;;;;;4971782;28;20225;-76
2023/09/09 11:02:18;;;;;;;7.97;6.55;;;46.50;1.00;;;;;;4987509;28;20185;-76
2023/09/09 11:04:56;;;;;;;7.32;6.63;;;47.10;1.00;;;;;;4992401;28;20265;-75
2023/09/09 11:07:21;;;;;;;8.98;7.15;;;46.90;1.00;;;;;;4992625;28;20197;-76
2023/09/09 11:09:53;;;;;;;7.28;6.57;;;;;;;;;;4992954;28;20198;-76
2023/09/09 11:12:26;;;;;;;9.13;7.03;;;46.90;1.00;;;;;;4992533;28;20175;-76
2023/09/09 11:15:09;;;;;;;11.80;6.75;;;46.90;1.00;;;;;;4992499;28;20606;-75
2023/09/09 11:17:40;;;;;;;8.65;6.72;;;47.40;1.00;;;;;;4992412;28;20665;-76
2023/09/09 11:20:19;;;;;;;7.88;6.78;;;47.50;1.00;;;;;;4992961;28;20229;-76
2023/09/09 11:22:45;;;;;;;8.20;6.10;;;48.00;1.00;;;;;;4992756;28;20241;-77
2023/09/09 11:25:14;;;;;;;9.30;6.88;;;48.10;1.00;;;;;;4992173;28;20600;-77
2023/09/09 11:27:40;;;;;;;6.43;5.82;;;48.30;1.00;;;;;;4984750;28;20277;-76
2023/09/09 11:30:06;;;;;;;7.32;6.05;;;48.10;1.00;;;;;;4992676;28;20551;-76
2023/09/09 11:32:32;;;;;;;6.55;5.95;;;47.80;1.00;;;;;;4990406;28;20719;-75
2023/09/09 11:34:57;;;;;;;6.68;5.97;;;47.40;1.00;;;;;;4974675;28;20206;-76
2023/09/09 11:37:27;;;;;;;6.55;5.85;;;47.30;1.00;;;;;;4991873;28;20178;-76
2023/09/09 11:39:53;;;;;;;7.75;6.55;;;47.90;1.00;;;;;;4992322;28;20185;-77
2023/09/09 11:42:19;;;;;;;7.05;6.07;;;48.30;1.00;;;;;;4974539;28;20174;-76
2023/09/09 11:44:46;;;;;;;11.82;6.45;;;47.40;1.00;;;;;;4992148;28;20264;-76
2023/09/09 11:47:14;;;;;;;7.90;6.05;;;47.30;1.00;;;;;;4992313;28;20179;-76
2023/09/09 11:49:42;;;;;;;7.97;6.20;;;47.60;1.00;;;;;;4992295;28;20175;-76
2023/09/09 11:52:08;;;;;;;7.25;5.72;;;48.30;1.00;;;;;;4992109;28;20185;-76
2023/09/09 11:54:34;;;;;;;6.70;5.20;;;48.00;1.00;;;;;;4991747;28;20211;-77
2023/09/09 11:57:09;;;;;;;7.65;5.70;;;48.30;1.00;;;;;;4992210;28;20186;-77
2023/09/09 11:59:44;;;;;;;6.45;5.25;;;49.20;1.00;;;;;;4991814;28;20213;-73
2023/09/09 12:02:20;;;;;;;6.95;6.25;;;49.50;1.00;;;;;;4987938;28;20210;-76
2023/09/09 12:05:01;;;;;;;6.95;6.07;;;50.00;1.00;;;;;;4991429;28;20285;-76
2023/09/09 12:07:30;;;;;;;6.97;6.00;;;49.60;1.00;;;;;;4991388;28;20186;-77
2023/09/09 12:09:58;;;;;;;7.05;5.63;;;49.10;1.00;;;;;;4991999;28;20186;-76
2023/09/09 12:12:24;;;;;;;8.25;6.13;;;48.50;1.00;;;;;;4991078;28;20190;-79
2023/09/09 12:14:52;;;;;;;7.10;6.18;;;48.90;1.00;;;;;;4991572;28;20264;-79
2023/09/09 12:17:17;;;;;;;7.60;5.78;;;49.20;1.00;;;;;;4973744;28;20205;-74
2023/09/09 12:19:53;;;;;;;12.23;7.25;;;49.60;1.00;;;;;;4991801;28;20209;-76
2023/09/09 12:22:34;;;;;;;12.10;6.53;;;48.60;1.00;;;;;;4974004;28;20183;-74
2023/09/09 12:24:59;;;;;;;7.00;6.30;;;48.40;1.00;;;;;;4991616;28;20675;-77
2023/09/09 12:27:42;;;;;;;8.38;6.13;;;48.60;1.00;;;;;;4983055;28;20214;-76
2023/09/09 12:30:28;;;;;;;7.00;6.30;;;49.30;1.00;;;;;;4991583;28;20216;-76
2023/09/09 12:32:54;;;;;;;7.03;6.38;;;48.90;1.00;;;;;;4988853;28;20289;-76
2023/09/09 12:35:19;;;;;;;11.52;6.63;;;48.90;1.00;;;;;;4990795;28;20285;-75
2023/09/09 12:37:45;;;;;;;9.45;6.68;;;48.50;1.00;;;;;;4991377;28;20185;-75
2023/09/09 12:40:11;;;;;;;8.10;6.43;;;47.90;1.00;;;;;;4991250;28;20688;-76
2023/09/09 12:42:36;;;;;;;9.35;7.00;;;47.80;1.00;;;;;;4990863;28;20190;-76